createdAt,value
2023-01-29T00:01:59.864Z,3.40
2023-01-29T00:04:29.208Z,3.40
2023-01-29T00:06:57.010Z,3.40
2023-01-29T00:09:24.963Z,3.40
2023-01-29T00:11:52.819Z,3.40
2023-01-29T00:14:20.970Z,3.40
2023-01-29T00:16:48.831Z,3.40
2023-01-29T00:19:17.432Z,3.40
2023-01-29T00:21:46.894Z,3.40
2023-01-29T00:24:14.834Z,3.40
2023-01-29T00:26:43.125Z,3.40
2023-01-29T00:29:11.137Z,3.50
2023-01-29T00:31:39.179Z,3.40
2023-01-29T00:34:08.364Z,3.40
2023-01-29T00:36:36.838Z,3.40
2023-01-29T00:39:10.871Z,3.50
2023-01-29T00:41:56.757Z,3.40
2023-01-29T00:44:42.437Z,3.50
2023-01-29T00:47:30.618Z,3.50
2023-01-29T00:49:59.008Z,3.50
2023-01-29T00:52:28.427Z,3.60
2023-01-29T00:54:59.697Z,3.60
2023-01-29T00:57:29.937Z,3.60
2023-01-29T00:59:58.078Z,3.60
2023-01-29T01:02:44.308Z,3.60
2023-01-29T01:05:17.789Z,3.70
2023-01-29T01:07:46.907Z,3.60
2023-01-29T01:10:21.156Z,3.60
2023-01-29T01:12:53.464Z,3.60
2023-01-29T01:15:22.803Z,3.60
2023-01-29T01:17:53.793Z,3.60
2023-01-29T01:20:21.999Z,3.60
2023-01-29T01:22:49.884Z,3.70
2023-01-29T01:25:19.373Z,3.60
2023-01-29T01:27:47.632Z,3.70
2023-01-29T01:30:17.746Z,3.70
2023-01-29T01:32:45.931Z,3.70
2023-01-29T01:35:14.691Z,3.60
2023-01-29T01:37:42.957Z,3.70
2023-01-29T01:40:20.160Z,3.60
2023-01-29T01:42:51.459Z,3.70
2023-01-29T01:45:22.960Z,3.70
2023-01-29T01:47:54.152Z,3.70
2023-01-29T01:50:25.529Z,3.70
2023-01-29T01:52:57.300Z,3.70
2023-01-29T01:55:29.051Z,3.70
2023-01-29T01:58:05.908Z,3.70
2023-01-29T02:00:33.967Z,3.80
2023-01-29T02:03:20.703Z,3.80
2023-01-29T02:06:07.747Z,3.70
2023-01-29T02:09:00.827Z,3.80
2023-01-29T02:11:28.972Z,3.80
2023-01-29T02:13:58.371Z,3.80
2023-01-29T02:16:27.367Z,3.80
2023-01-29T02:18:57.143Z,3.80
2023-01-29T02:21:48.694Z,3.90
2023-01-29T02:24:38.103Z,3.90
2023-01-29T02:27:09.844Z,3.80
2023-01-29T02:29:51.545Z,3.80
2023-01-29T02:32:28.368Z,3.80
2023-01-29T02:35:27.715Z,3.80
2023-01-29T02:38:02.605Z,3.90
2023-01-29T02:40:34.491Z,3.90
2023-01-29T02:43:11.236Z,3.90
2023-01-29T02:45:47.948Z,3.90
2023-01-29T02:48:20.097Z,3.90
2023-01-29T02:50:55.460Z,3.90
2023-01-29T02:53:29.624Z,3.90
2023-01-29T02:56:03.309Z,3.80
2023-01-29T02:58:33.757Z,3.90
2023-01-29T03:01:07.621Z,3.80
2023-01-29T03:03:39.520Z,3.90
2023-01-29T03:06:18.120Z,3.90
2023-01-29T03:08:53.932Z,3.90
2023-01-29T03:11:22.870Z,3.90
2023-01-29T03:13:56.772Z,3.90
2023-01-29T03:16:31.995Z,3.90
2023-01-29T03:19:03.846Z,3.90
2023-01-29T03:21:53.685Z,3.90
2023-01-29T03:24:49.495Z,3.90
2023-01-29T03:27:38.879Z,3.90
2023-01-29T03:30:29.097Z,4.00
2023-01-29T03:33:10.737Z,4.00
2023-01-29T03:35:47.350Z,4.00
2023-01-29T03:38:16.460Z,4.00
2023-01-29T03:40:50.136Z,4.00
2023-01-29T03:43:30.400Z,4.00
2023-01-29T03:46:04.766Z,4.00
2023-01-29T03:48:38.347Z,4.00
2023-01-29T03:51:18.020Z,4.00
2023-01-29T03:53:53.053Z,4.00
2023-01-29T03:56:35.367Z,4.10
2023-01-29T03:59:13.372Z,4.10
2023-01-29T04:02:05.042Z,4.00
2023-01-29T04:04:36.782Z,4.10
2023-01-29T04:07:11.902Z,4.00
2023-01-29T04:09:44.967Z,4.00
2023-01-29T04:12:18.644Z,4.00
2023-01-29T04:14:47.891Z,4.00
2023-01-29T04:17:19.625Z,4.00
2023-01-29T04:20:01.467Z,4.00
2023-01-29T04:22:35.213Z,4.00
2023-01-29T04:25:08.536Z,4.00
2023-01-29T04:27:44.127Z,4.10
2023-01-29T04:30:23.527Z,4.00
2023-01-29T04:33:19.132Z,4.10
2023-01-29T04:36:06.937Z,4.00
2023-01-29T04:38:47.198Z,4.00
2023-01-29T04:41:22.800Z,4.00
2023-01-29T04:43:59.495Z,4.00
2023-01-29T04:46:32.646Z,4.00
2023-01-29T04:49:14.029Z,4.00
2023-01-29T04:51:52.309Z,4.00
2023-01-29T04:54:29.510Z,4.00
2023-01-29T04:57:06.429Z,4.00
2023-01-29T04:59:46.092Z,4.00
2023-01-29T05:02:15.131Z,4.00
2023-01-29T05:04:45.388Z,4.10
2023-01-29T05:07:16.192Z,4.00
2023-01-29T05:09:46.048Z,4.00
2023-01-29T05:12:16.874Z,4.00
2023-01-29T05:14:46.716Z,4.00
2023-01-29T05:17:18.384Z,4.10
2023-01-29T05:19:47.241Z,4.00
2023-01-29T05:22:22.544Z,4.00
2023-01-29T05:24:50.936Z,4.00
2023-01-29T05:27:38.482Z,4.00
2023-01-29T05:30:08.495Z,4.00
2023-01-29T05:32:36.329Z,4.00
2023-01-29T05:35:04.461Z,4.10
2023-01-29T05:37:33.613Z,4.10
2023-01-29T05:40:01.507Z,4.10
2023-01-29T05:42:29.341Z,4.00
2023-01-29T05:44:57.214Z,4.00
2023-01-29T05:47:25.033Z,4.00
2023-01-29T05:49:52.918Z,4.00
2023-01-29T05:52:20.758Z,4.00
2023-01-29T05:54:50.078Z,4.00
2023-01-29T05:57:18.022Z,4.00
2023-01-29T05:59:45.865Z,4.00
2023-01-29T06:02:13.691Z,4.00
2023-01-29T06:04:41.642Z,4.00
2023-01-29T06:07:09.543Z,4.00
2023-01-29T06:09:37.410Z,4.00
2023-01-29T06:12:07.843Z,4.00
2023-01-29T06:14:35.725Z,4.00
2023-01-29T06:17:03.570Z,4.00
2023-01-29T06:19:31.593Z,4.00
2023-01-29T06:21:59.724Z,4.00
2023-01-29T06:24:27.602Z,3.90
2023-01-29T06:26:55.612Z,3.80
2023-01-29T06:29:24.900Z,3.90
2023-01-29T06:31:52.860Z,3.90
2023-01-29T06:34:20.946Z,3.90
2023-01-29T06:36:48.792Z,3.90
2023-01-29T06:39:16.955Z,3.90
2023-01-29T06:41:45.540Z,3.90
2023-01-29T06:44:13.509Z,3.90
2023-01-29T06:46:42.777Z,3.80
2023-01-29T06:49:10.713Z,3.80
2023-01-29T06:51:38.619Z,3.90
2023-01-29T06:54:08.202Z,3.90
2023-01-29T06:56:36.075Z,3.90
2023-01-29T06:59:04.287Z,3.80
2023-01-29T07:01:36.697Z,3.80
2023-01-29T07:04:06.296Z,3.80
2023-01-29T07:06:34.391Z,3.80
2023-01-29T07:09:02.369Z,3.80
2023-01-29T07:11:30.287Z,3.80
2023-01-29T07:13:58.338Z,3.80
2023-01-29T07:16:26.625Z,3.80
2023-01-29T07:18:54.678Z,3.80
2023-01-29T07:21:24.168Z,3.80
2023-01-29T07:23:52.150Z,3.80
2023-01-29T07:26:20.086Z,3.80
2023-01-29T07:28:47.999Z,3.80
2023-01-29T07:31:16.045Z,3.80
2023-01-29T07:33:45.253Z,3.80
2023-01-29T07:36:14.187Z,3.80
2023-01-29T07:38:43.407Z,3.70
2023-01-29T07:41:12.694Z,3.70
2023-01-29T07:43:40.651Z,3.70
2023-01-29T07:46:09.007Z,3.80
2023-01-29T07:48:36.945Z,3.80
2023-01-29T07:51:05.021Z,3.80
2023-01-29T07:53:32.869Z,3.80
2023-01-29T07:56:02.167Z,3.80
2023-01-29T07:58:30.003Z,3.90
2023-01-29T08:00:57.959Z,3.90
2023-01-29T08:03:25.954Z,3.90
2023-01-29T08:05:54.625Z,3.90
2023-01-29T08:08:22.405Z,3.90
2023-01-29T08:10:50.358Z,3.90
2023-01-29T08:13:19.486Z,3.90
2023-01-29T08:15:47.462Z,4.00
2023-01-29T08:18:15.655Z,3.90
2023-01-29T08:20:43.534Z,3.90
2023-01-29T08:23:14.787Z,4.00
2023-01-29T08:25:43.052Z,4.00
2023-01-29T08:28:11.714Z,4.00
2023-01-29T08:30:41.096Z,4.00
2023-01-29T08:33:09.012Z,4.00
2023-01-29T08:35:37.820Z,4.10
2023-01-29T08:38:06.544Z,4.10
2023-01-29T08:40:36.252Z,4.10
2023-01-29T08:43:07.815Z,4.10
2023-01-29T08:45:38.707Z,4.10
2023-01-29T08:48:08.453Z,4.10
2023-01-29T08:50:36.581Z,4.10
2023-01-29T08:53:07.663Z,4.10
2023-01-29T08:55:38.075Z,4.10
2023-01-29T08:58:06.346Z,4.10
2023-01-29T09:00:34.839Z,4.10
2023-01-29T09:03:03.710Z,4.20
2023-01-29T09:05:33.471Z,4.20
2023-01-29T09:08:01.388Z,4.20
2023-01-29T09:10:29.291Z,4.20
2023-01-29T09:12:57.219Z,4.20
2023-01-29T09:15:25.126Z,4.20
2023-01-29T09:17:53.218Z,4.20
2023-01-29T09:20:21.189Z,4.10
2023-01-29T09:22:53.531Z,4.10
2023-01-29T09:25:21.484Z,4.10
2023-01-29T09:27:50.496Z,4.00
2023-01-29T09:30:19.711Z,4.00
2023-01-29T09:32:55.112Z,4.00
2023-01-29T09:35:24.875Z,4.00
2023-01-29T09:37:54.185Z,4.00
2023-01-29T09:40:27.539Z,4.00
2023-01-29T09:43:00.460Z,4.00
2023-01-29T09:45:30.380Z,4.00
2023-01-29T09:48:01.606Z,4.00
2023-01-29T09:50:33.917Z,4.00
2023-01-29T09:53:12.228Z,4.00
2023-01-29T09:55:44.746Z,4.00
2023-01-29T09:58:19.493Z,4.00
2023-01-29T10:00:58.070Z,4.00
2023-01-29T10:03:42.036Z,4.10
2023-01-29T10:06:28.872Z,4.00
2023-01-29T10:09:29.894Z,4.10
2023-01-29T10:12:10.463Z,4.10
2023-01-29T10:14:46.281Z,4.10
2023-01-29T10:17:29.723Z,4.10
2023-01-29T10:20:14.797Z,4.10
2023-01-29T10:23:02.591Z,4.10
2023-01-29T10:25:36.512Z,4.20
2023-01-29T10:28:18.486Z,4.20
2023-01-29T10:30:50.210Z,4.20
2023-01-29T10:33:26.459Z,4.10
2023-01-29T10:35:57.913Z,4.10
2023-01-29T10:38:38.363Z,4.20
2023-01-29T10:41:22.051Z,4.20
2023-01-29T10:44:02.518Z,4.30
2023-01-29T10:46:45.613Z,4.30
2023-01-29T10:49:26.619Z,4.30
2023-01-29T10:52:11.638Z,4.30
2023-01-29T10:55:04.375Z,4.20
2023-01-29T10:57:54.695Z,4.20
2023-01-29T11:00:25.327Z,4.20
2023-01-29T11:02:53.904Z,4.20
2023-01-29T11:05:27.466Z,4.30
2023-01-29T11:08:04.230Z,4.30
2023-01-29T11:10:38.451Z,4.30
2023-01-29T11:13:12.504Z,4.30
2023-01-29T11:15:40.546Z,4.30
2023-01-29T11:18:13.611Z,4.30
2023-01-29T11:20:43.646Z,4.30
2023-01-29T11:23:26.426Z,4.30
2023-01-29T11:25:55.182Z,4.30
2023-01-29T11:28:38.990Z,4.30
2023-01-29T11:31:18.465Z,4.30
2023-01-29T11:33:46.910Z,4.30
2023-01-29T11:36:33.525Z,4.30
2023-01-29T11:39:20.608Z,4.30
2023-01-29T11:41:51.363Z,4.30
2023-01-29T11:44:29.354Z,4.40
2023-01-29T11:46:58.597Z,4.40
2023-01-29T11:49:33.877Z,4.40
2023-01-29T11:52:04.812Z,4.50
2023-01-29T11:54:36.514Z,4.50
2023-01-29T11:57:05.284Z,4.50
2023-01-29T11:59:48.895Z,4.60
2023-01-29T12:02:26.580Z,4.60
2023-01-29T12:04:56.321Z,4.60
2023-01-29T12:07:24.540Z,4.60
2023-01-29T12:09:55.902Z,4.50
2023-01-29T12:12:32.988Z,4.60
2023-01-29T12:15:17.869Z,4.60
2023-01-29T12:17:52.306Z,4.50
2023-01-29T12:20:26.464Z,4.50
2023-01-29T12:23:02.192Z,4.60
2023-01-29T12:25:41.056Z,4.50
2023-01-29T12:28:20.173Z,4.60
2023-01-29T12:31:07.289Z,4.60
2023-01-29T12:33:42.629Z,4.60
2023-01-29T12:36:17.536Z,4.60
2023-01-29T12:38:46.397Z,4.60
2023-01-29T12:41:26.038Z,4.50
2023-01-29T12:43:57.061Z,4.60
2023-01-29T12:46:28.927Z,4.60
2023-01-29T12:48:59.969Z,4.70
2023-01-29T12:51:35.629Z,4.60
2023-01-29T12:54:08.682Z,4.60
2023-01-29T12:56:41.025Z,4.60
2023-01-29T12:59:18.500Z,4.60
2023-01-29T13:01:51.846Z,4.60
2023-01-29T13:04:30.200Z,4.70
2023-01-29T13:07:07.650Z,4.70
2023-01-29T13:09:38.058Z,4.70
2023-01-29T13:12:12.967Z,4.60
2023-01-29T13:14:47.675Z,4.70
2023-01-29T13:17:24.402Z,4.70
2023-01-29T13:19:55.919Z,4.70
2023-01-29T13:22:27.149Z,4.70
2023-01-29T13:25:04.699Z,4.70
2023-01-29T13:27:35.577Z,4.70
2023-01-29T13:30:04.467Z,4.70
2023-01-29T13:32:36.651Z,4.70
2023-01-29T13:35:07.240Z,4.70
2023-01-29T13:37:37.471Z,4.70
2023-01-29T13:40:09.611Z,4.60
2023-01-29T13:42:43.655Z,4.70
2023-01-29T13:45:22.017Z,4.70
2023-01-29T13:47:52.514Z,4.70
2023-01-29T13:50:26.006Z,4.70
2023-01-29T13:52:57.399Z,4.70
2023-01-29T13:55:31.184Z,4.70
2023-01-29T13:58:01.098Z,4.70
2023-01-29T14:00:53.169Z,4.70
2023-01-29T14:04:03.402Z,4.70
2023-01-29T14:06:53.187Z,4.80
2023-01-29T14:09:56.352Z,4.80
2023-01-29T14:12:47.447Z,4.70
2023-01-29T14:15:21.319Z,4.70
2023-01-29T14:17:59.579Z,4.70
2023-01-29T14:20:45.143Z,4.70
2023-01-29T14:23:24.700Z,4.70
2023-01-29T14:25:52.787Z,4.60
2023-01-29T14:28:24.491Z,4.60
2023-01-29T14:30:53.181Z,4.60
2023-01-29T14:33:27.523Z,4.50
2023-01-29T14:35:58.681Z,4.50
2023-01-29T14:38:29.696Z,4.60
2023-01-29T14:41:08.530Z,4.50
2023-01-29T14:43:36.479Z,4.50
2023-01-29T14:46:37.843Z,4.50
2023-01-29T14:49:08.486Z,4.50
2023-01-29T14:51:41.295Z,4.50
2023-01-29T14:54:23.592Z,4.50
2023-01-29T14:56:59.273Z,4.50
2023-01-29T14:59:33.530Z,4.50
2023-01-29T15:02:06.262Z,4.50
2023-01-29T15:04:41.629Z,4.40
2023-01-29T15:07:20.827Z,4.50
2023-01-29T15:09:54.184Z,4.50
2023-01-29T15:12:32.367Z,4.40
2023-01-29T15:15:08.805Z,4.40
2023-01-29T15:17:43.683Z,4.40
2023-01-29T15:20:32.443Z,4.40
2023-01-29T15:23:03.458Z,4.40
2023-01-29T15:25:36.661Z,4.40
2023-01-29T15:28:08.487Z,4.40
2023-01-29T15:30:37.619Z,4.40
2023-01-29T15:33:10.383Z,4.30
2023-01-29T15:35:40.554Z,4.30
2023-01-29T15:38:17.129Z,4.30
2023-01-29T15:40:53.206Z,4.20
2023-01-29T15:43:22.842Z,4.20
2023-01-29T15:45:51.993Z,4.20
2023-01-29T15:48:23.154Z,4.20
2023-01-29T15:50:54.253Z,4.20
2023-01-29T15:53:29.698Z,4.20
2023-01-29T15:55:59.932Z,4.20
2023-01-29T15:58:32.194Z,4.20
2023-01-29T16:01:02.060Z,4.20
2023-01-29T16:03:33.908Z,4.20
2023-01-29T16:06:02.615Z,4.20
2023-01-29T16:08:31.961Z,4.20
2023-01-29T16:11:02.473Z,4.20
2023-01-29T16:13:32.580Z,4.20
2023-01-29T16:16:02.589Z,4.10
2023-01-29T16:18:34.505Z,4.10
2023-01-29T16:21:08.691Z,4.10
2023-01-29T16:23:43.128Z,4.10
2023-01-29T16:26:17.718Z,4.10
2023-01-29T16:28:47.123Z,4.10
2023-01-29T16:31:22.373Z,4.10
2023-01-29T16:33:50.438Z,4.10
2023-01-29T16:36:20.685Z,4.10
2023-01-29T16:38:54.110Z,4.10
2023-01-29T16:41:32.403Z,4.00
2023-01-29T16:44:02.744Z,4.10
2023-01-29T16:46:36.282Z,4.10
2023-01-29T16:49:21.288Z,4.10
2023-01-29T16:51:49.187Z,4.10
2023-01-29T16:54:23.473Z,4.00
2023-01-29T16:56:54.196Z,4.00
2023-01-29T16:59:26.818Z,4.00
2023-01-29T17:01:56.085Z,4.00
2023-01-29T17:04:24.030Z,4.00
2023-01-29T17:07:00.958Z,4.00
2023-01-29T17:09:33.262Z,4.00
2023-01-29T17:12:04.221Z,4.00
2023-01-29T17:14:34.232Z,4.00
2023-01-29T17:17:04.635Z,4.00
2023-01-29T17:19:32.795Z,4.00
2023-01-29T17:22:04.530Z,4.00
2023-01-29T17:24:33.754Z,4.00
2023-01-29T17:27:03.443Z,4.00
2023-01-29T17:29:32.578Z,4.00
2023-01-29T17:32:00.559Z,4.00
2023-01-29T17:34:28.538Z,4.00
2023-01-29T17:36:57.195Z,4.00
2023-01-29T17:39:25.537Z,4.00
2023-01-29T17:41:56.008Z,4.00
2023-01-29T17:44:26.019Z,3.90
2023-01-29T17:46:54.326Z,3.90
2023-01-29T17:49:25.014Z,3.90
2023-01-29T17:51:53.988Z,4.00
2023-01-29T17:54:22.962Z,4.00
2023-01-29T17:56:51.493Z,4.00
2023-01-29T17:59:22.024Z,4.00
2023-01-29T18:01:50.901Z,4.00
2023-01-29T18:04:19.256Z,4.00
2023-01-29T18:06:49.582Z,3.90
2023-01-29T18:09:20.327Z,4.00
2023-01-29T18:11:48.457Z,4.00
2023-01-29T18:14:16.488Z,4.00
2023-01-29T18:16:46.458Z,4.00
2023-01-29T18:19:17.439Z,4.00
2023-01-29T18:21:45.294Z,3.90
2023-01-29T18:24:13.083Z,3.90
2023-01-29T18:26:41.049Z,3.90
2023-01-29T18:29:09.074Z,3.90
2023-01-29T18:31:37.047Z,3.90
2023-01-29T18:34:06.366Z,3.80
2023-01-29T18:36:34.374Z,3.90
2023-01-29T18:39:02.223Z,3.80
2023-01-29T18:41:30.216Z,3.80
2023-01-29T18:43:57.989Z,3.80
2023-01-29T18:46:25.852Z,3.80
2023-01-29T18:48:53.980Z,3.80
2023-01-29T18:51:23.181Z,3.90
2023-01-29T18:53:51.940Z,3.90
2023-01-29T18:56:20.506Z,3.90
2023-01-29T18:58:53.142Z,3.90
2023-01-29T19:01:24.236Z,3.90
2023-01-29T19:03:52.117Z,3.80
2023-01-29T19:06:19.957Z,3.80
2023-01-29T19:08:49.383Z,3.80
2023-01-29T19:11:18.319Z,3.80
2023-01-29T19:13:47.815Z,3.80
2023-01-29T19:16:15.834Z,3.70
2023-01-29T19:18:43.707Z,3.70
2023-01-29T19:21:13.286Z,3.80
2023-01-29T19:23:41.666Z,3.70
2023-01-29T19:26:11.963Z,3.80
2023-01-29T19:28:40.183Z,3.70
2023-01-29T19:31:09.277Z,3.70
2023-01-29T19:33:37.367Z,3.70
2023-01-29T19:36:06.107Z,3.70
2023-01-29T19:38:37.773Z,3.70
2023-01-29T19:41:06.214Z,3.70
2023-01-29T19:43:35.417Z,3.70
2023-01-29T19:46:03.338Z,3.70
2023-01-29T19:48:31.280Z,3.70
2023-01-29T19:51:01.503Z,3.70
2023-01-29T19:53:30.272Z,3.60
2023-01-29T19:55:59.547Z,3.60
2023-01-29T19:58:27.766Z,3.60
2023-01-29T20:00:58.157Z,3.60
2023-01-29T20:03:26.809Z,3.60
2023-01-29T20:05:54.661Z,3.60
2023-01-29T20:08:23.775Z,3.60
2023-01-29T20:10:51.574Z,3.60
2023-01-29T20:13:19.391Z,3.70
2023-01-29T20:15:48.076Z,3.70
2023-01-29T20:18:18.007Z,3.70
2023-01-29T20:20:47.954Z,3.70
2023-01-29T20:23:28.004Z,3.70
2023-01-29T20:26:01.070Z,3.60
2023-01-29T20:28:29.228Z,3.70
2023-01-29T20:30:58.136Z,3.70
2023-01-29T20:33:28.984Z,3.70
2023-01-29T20:35:58.593Z,3.60
2023-01-29T20:38:30.212Z,3.70
2023-01-29T20:41:03.332Z,3.60
2023-01-29T20:43:31.302Z,3.70
2023-01-29T20:45:59.517Z,3.70
2023-01-29T20:48:29.272Z,3.70
2023-01-29T20:50:57.243Z,3.70
2023-01-29T20:53:25.135Z,3.70
2023-01-29T20:55:53.163Z,3.70
2023-01-29T20:58:21.241Z,3.70
2023-01-29T21:00:49.034Z,3.70
2023-01-29T21:03:16.916Z,3.70
2023-01-29T21:05:46.339Z,3.70
2023-01-29T21:08:14.938Z,3.70
2023-01-29T21:10:43.438Z,3.70
2023-01-29T21:13:11.750Z,3.70
2023-01-29T21:15:39.606Z,3.70
2023-01-29T21:18:07.564Z,3.70
2023-01-29T21:20:35.463Z,3.70
2023-01-29T21:23:07.091Z,3.70
2023-01-29T21:25:35.932Z,3.80
2023-01-29T21:28:04.283Z,3.80
2023-01-29T21:30:32.245Z,3.80
2023-01-29T21:33:00.118Z,3.80
2023-01-29T21:35:27.975Z,3.80
2023-01-29T21:37:55.781Z,3.80
2023-01-29T21:40:26.029Z,3.80
2023-01-29T21:43:11.308Z,3.90
2023-01-29T21:45:39.654Z,3.80
2023-01-29T21:48:08.016Z,3.90
2023-01-29T21:50:35.950Z,3.90
2023-01-29T21:53:04.355Z,3.90
2023-01-29T21:55:33.677Z,3.90
2023-01-29T21:58:01.728Z,4.00
2023-01-29T22:00:29.727Z,4.00
2023-01-29T22:02:57.653Z,4.00
2023-01-29T22:05:26.389Z,4.00
2023-01-29T22:07:54.248Z,4.00
2023-01-29T22:10:23.265Z,4.00
2023-01-29T22:12:53.687Z,4.10
2023-01-29T22:15:23.770Z,4.10
2023-01-29T22:17:52.185Z,4.10
2023-01-29T22:20:20.590Z,4.10
2023-01-29T22:22:48.753Z,4.10
2023-01-29T22:25:19.855Z,4.10
2023-01-29T22:27:47.783Z,4.10
2023-01-29T22:30:17.913Z,4.20
2023-01-29T22:32:45.899Z,4.20
2023-01-29T22:35:13.715Z,4.20
2023-01-29T22:37:41.579Z,4.10
2023-01-29T22:40:10.501Z,4.20
2023-01-29T22:42:38.444Z,4.20
2023-01-29T22:45:07.094Z,4.20
2023-01-29T22:47:36.401Z,4.20
2023-01-29T22:50:04.615Z,4.20
2023-01-29T22:52:38.317Z,4.20
2023-01-29T22:55:08.808Z,4.20
2023-01-29T22:57:37.031Z,4.20
2023-01-29T23:00:07.834Z,4.20
2023-01-29T23:02:37.841Z,4.20
2023-01-29T23:05:06.700Z,4.20
2023-01-29T23:07:34.725Z,4.20
2023-01-29T23:10:02.729Z,4.20
2023-01-29T23:12:30.546Z,4.20
2023-01-29T23:14:58.423Z,4.20
2023-01-29T23:17:26.380Z,4.30
2023-01-29T23:19:55.596Z,4.30
2023-01-29T23:22:23.571Z,4.30
2023-01-29T23:24:51.528Z,4.30
2023-01-29T23:27:18.471Z,4.30
2023-01-29T23:29:47.535Z,4.30
2023-01-29T23:32:17.778Z,4.30
2023-01-29T23:34:45.687Z,4.20
2023-01-29T23:37:15.250Z,4.30
2023-01-29T23:39:43.077Z,4.30
2023-01-29T23:42:10.925Z,4.30
2023-01-29T23:44:40.921Z,4.30
2023-01-29T23:47:08.982Z,4.30
2023-01-29T23:49:37.237Z,4.30
2023-01-29T23:52:05.270Z,4.30
2023-01-29T23:54:34.463Z,4.30
2023-01-29T23:57:02.284Z,4.30
2023-01-29T23:59:30.215Z,4.30
